Time;durP1;ratioP1;P1;durP2;ratioP2;P2;SDS_P1;SDS_P2;PMS_P1;PMS_P2;Temp;Humidity;BMP_temperature;BMP_pressure;BME280_temperature;BME280_humidity;BME280_pressure;Samples;Min_cycle;Max_cycle;Signal;HPM_P1;HPM_P2
2022/09/17 00:03:02;;;;;;;4.10;1.50;;;23.30;66.90;;;;;;214661;1299;24254;-61
2022/09/17 00:08:08;;;;;;;5.00;1.50;;;23.20;67.10;;;;;;214736;1299;23068;-60
2022/09/17 00:13:12;;;;;;;4.20;2.00;;;23.30;67.10;;;;;;214845;1299;25499;-61
2022/09/17 00:18:15;;;;;;;3.90;1.80;;;23.20;67.10;;;;;;214684;1299;23997;-60
2022/09/17 00:23:19;;;;;;;3.50;1.80;;;23.20;67.50;;;;;;214850;1299;24333;-61
2022/09/17 00:28:22;;;;;;;3.80;1.50;;;23.20;67.40;;;;;;214840;1298;24181;-61
2022/09/17 00:33:26;;;;;;;3.50;1.50;;;23.20;67.20;;;;;;214747;1299;22918;-63
2022/09/17 00:38:30;;;;;;;2.90;1.60;;;23.20;67.20;;;;;;214490;1299;22723;-58
2022/09/17 00:43:49;;;;;;;3.90;1.40;;;23.20;67.30;;;;;;216588;1299;25405;-57
2022/09/17 00:48:54;;;;;;;3.20;1.40;;;23.10;67.10;;;;;;214706;1297;22577;-61
2022/09/17 00:54:01;;;;;;;3.50;1.40;;;23.20;67.70;;;;;;214802;1299;24374;-60
2022/09/17 00:59:06;;;;;;;3.70;1.90;;;23.10;67.10;;;;;;214995;1297;22625;-62
2022/09/17 01:04:29;;;;;;;2.30;1.40;;;23.10;67.10;;;;;;214894;1297;22569;-64
2022/09/17 01:09:58;;;;;;;2.50;1.50;;;23.10;67.10;;;;;;215096;1297;22579;-61
2022/09/17 01:15:09;;;;;;;2.20;1.20;;;23.10;67.10;;;;;;215263;1300;24372;-59
2022/09/17 01:20:25;;;;;;;2.80;1.40;;;23.10;67.10;;;;;;213816;1299;1543426;-63
2022/09/17 01:26:00;;;;;;;4.40;2.00;;;23.00;67.00;;;;;;215191;1299;22763;-61
2022/09/17 01:31:29;;;;;;;4.20;1.80;;;23.00;67.00;;;;;;215006;1297;22575;-61
2022/09/17 01:36:43;;;;;;;2.30;1.40;;;23.00;67.00;;;;;;214920;1296;22578;-62
2022/09/17 01:41:55;;;;;;;2.60;1.30;;;23.00;67.00;;;;;;215114;1297;24247;-60
2022/09/17 01:47:25;;;;;;;2.90;1.60;;;23.00;67.00;;;;;;214867;1299;22597;-63
2022/09/17 01:52:34;;;;;;;3.20;1.60;;;23.00;67.00;;;;;;214748;1297;25324;-61
2022/09/17 01:58:03;;;;;;;2.50;1.20;;;23.00;66.60;;;;;;214985;1296;25656;-61
2022/09/17 02:03:31;;;;;;;2.80;1.40;;;23.00;67.00;;;;;;215030;1296;23192;-62
2022/09/17 02:08:41;;;;;;;4.00;1.50;;;23.00;67.00;;;;;;214900;1297;25522;-61
2022/09/17 02:14:05;;;;;;;2.40;1.50;;;22.90;66.90;;;;;;214894;1299;24262;-59
2022/09/17 02:19:30;;;;;;;2.50;1.40;;;22.90;66.90;;;;;;214867;1299;26649;-61
2022/09/17 02:24:44;;;;;;;2.10;1.30;;;22.90;66.90;;;;;;215152;1296;25368;-62
2022/09/17 02:29:48;;;;;;;2.40;1.50;;;22.90;67.30;;;;;;215169;1296;23850;-62
2022/09/17 02:34:52;;;;;;;1.90;1.30;;;22.90;66.90;;;;;;215077;1299;22608;-62
2022/09/17 02:39:55;;;;;;;2.50;1.20;;;22.90;66.90;;;;;;215387;1299;22581;-64
2022/09/17 02:45:27;;;;;;;3.50;1.70;;;22.90;67.00;;;;;;214946;1297;22580;-62
2022/09/17 02:51:16;;;;;;;2.70;1.40;;;22.90;67.00;;;;;;215170;1296;26959;-59
2022/09/17 02:56:45;;;;;;;2.10;1.10;;;22.80;67.50;;;;;;215073;1299;22571;-60
2022/09/17 03:01:51;;;;;;;2.50;1.20;;;22.80;66.90;;;;;;214900;1299;25230;-60
2022/09/17 03:06:58;;;;;;;2.30;1.20;;;22.80;66.90;;;;;;214835;1296;24256;-59
2022/09/17 03:12:02;;;;;;;1.80;1.10;;;22.80;67.50;;;;;;215134;1296;22646;-64
2022/09/17 03:17:06;;;;;;;5.00;1.30;;;22.80;66.90;;;;;;215101;1296;24227;-61
2022/09/17 03:22:09;;;;;;;3.90;1.40;;;22.80;66.90;;;;;;214945;1299;24136;-60
2022/09/17 03:27:13;;;;;;;2.80;1.40;;;22.80;67.20;;;;;;215405;1296;24270;-65
2022/09/17 03:32:17;;;;;;;2.20;1.10;;;22.80;66.90;;;;;;215016;1297;22765;-61
2022/09/17 03:37:21;;;;;;;2.40;1.20;;;22.80;66.90;;;;;;214951;1296;25531;-62
2022/09/17 03:42:24;;;;;;;2.00;1.10;;;22.80;66.90;;;;;;214980;1296;25464;-63
2022/09/17 03:47:28;;;;;;;3.00;1.30;;;22.80;66.90;;;;;;214994;1299;22578;-58
2022/09/17 03:52:31;;;;;;;3.20;1.30;;;22.70;66.80;;;;;;214891;1296;25549;-64
2022/09/17 03:57:35;;;;;;;3.10;1.50;;;22.70;66.80;;;;;;214894;1297;25495;-61
2022/09/17 04:02:38;;;;;;;2.30;1.20;;;22.70;66.90;;;;;;214973;1297;22817;-61
2022/09/17 04:07:42;;;;;;;3.10;1.40;;;22.70;67.00;;;;;;215116;1297;22638;-65
2022/09/17 04:12:46;;;;;;;3.10;1.50;;;22.70;67.10;;;;;;214932;1299;25491;-60
2022/09/17 04:17:49;;;;;;;2.00;1.20;;;22.70;67.10;;;;;;215151;1299;25642;-60
2022/09/17 04:22:53;;;;;;;3.80;1.20;;;22.70;67.20;;;;;;215218;1296;24360;-63
2022/09/17 04:28:03;;;;;;;1.90;1.20;;;22.70;67.00;;;;;;215283;1296;25194;-61
2022/09/17 04:33:12;;;;;;;6.60;1.20;;;22.70;67.00;;;;;;215015;1297;22575;-62
2022/09/17 04:38:21;;;;;;;;;;;22.70;67.20;;;;;;215405;1296;25281;-60
2022/09/17 04:43:24;;;;;;;5.70;1.70;;;22.70;67.90;;;;;;215188;1299;22586;-61
2022/09/17 04:48:30;;;;;;;7.30;2.00;;;22.70;68.70;;;;;;215127;1299;25385;-61
2022/09/17 04:53:34;;;;;;;6.60;2.10;;;22.70;69.10;;;;;;214954;1297;25332;-61
2022/09/17 04:58:39;;;;;;;8.70;2.20;;;22.70;69.90;;;;;;215016;1296;25329;-60
2022/09/17 05:03:42;;;;;;;8.60;2.00;;;22.80;70.90;;;;;;214882;1297;23125;-61
2022/09/17 05:08:46;;;;;;;13.00;2.20;;;22.80;71.50;;;;;;215082;1297;24790;-60
2022/09/17 05:13:49;;;;;;;10.10;2.50;;;22.70;71.00;;;;;;215020;1297;25595;-60
2022/09/17 05:18:53;;;;;;;14.60;2.20;;;22.70;71.20;;;;;;214718;1299;24284;-59
2022/09/17 05:24:00;;;;;;;16.10;2.30;;;22.70;71.00;;;;;;214921;1299;24319;-60
2022/09/17 05:29:04;;;;;;;7.10;2.10;;;22.70;71.10;;;;;;215298;1297;27087;-60
2022/09/17 05:34:08;;;;;;;8.50;2.20;;;22.70;71.30;;;;;;214729;1297;25496;-60
2022/09/17 05:39:13;;;;;;;9.20;2.70;;;22.80;71.50;;;;;;215040;1297;24265;-60
2022/09/17 05:44:18;;;;;;;10.10;2.20;;;22.80;72.20;;;;;;214908;1296;22723;-59
2022/09/17 05:49:21;;;;;;;14.90;2.60;;;22.80;72.30;;;;;;215359;1299;23957;-59
2022/09/17 05:54:25;;;;;;;8.20;2.20;;;22.80;72.30;;;;;;214933;1299;22620;-58
2022/09/17 05:59:28;;;;;;;14.40;2.00;;;22.80;72.10;;;;;;215127;1299;22575;-60
2022/09/17 06:04:32;;;;;;;12.00;2.50;;;22.70;70.00;;;;;;214965;1296;22635;-58
2022/09/17 06:09:40;;;;;;;13.70;2.10;;;22.70;69.70;;;;;;214291;1299;23346;-59
2022/09/17 06:14:46;;;;;;;8.40;2.10;;;22.70;69.10;;;;;;220500;1297;24255;-60
2022/09/17 06:19:51;;;;;;;7.60;2.20;;;22.70;69.20;;;;;;215092;1297;24081;-60
2022/09/17 06:24:56;;;;;;;7.00;1.70;;;22.80;69.30;;;;;;214930;1296;24385;-61
2022/09/17 06:30:01;;;;;;;7.90;2.30;;;22.80;68.70;;;;;;214969;1299;24254;-64
2022/09/17 06:35:06;;;;;;;8.90;2.30;;;22.70;68.80;;;;;;215231;1297;22579;-60
2022/09/17 06:40:09;;;;;;;8.90;2.70;;;22.70;68.80;;;;;;215191;1299;23694;-61
2022/09/17 06:45:15;;;;;;;7.20;2.60;;;22.70;69.00;;;;;;215157;1297;22630;-62
2022/09/17 06:50:19;;;;;;;9.20;3.00;;;22.70;71.10;;;;;;214995;1298;22595;-62
2022/09/17 06:55:24;;;;;;;9.20;3.20;;;22.70;71.50;;;;;;215399;1296;24469;-59
2022/09/17 07:00:29;;;;;;;6.00;2.20;;;22.70;71.30;;;;;;214968;1297;22684;-61
2022/09/17 07:05:35;;;;;;;7.00;2.20;;;22.70;70.60;;;;;;215381;1296;22602;-63
2022/09/17 07:10:41;;;;;;;6.60;1.80;;;22.70;70.30;;;;;;215334;1296;25481;-60
2022/09/17 07:15:58;;;;;;;7.10;2.40;;;22.70;70.10;;;;;;215256;1296;26562;-61
2022/09/17 07:21:04;;;;;;;6.80;2.00;;;22.70;69.40;;;;;;214962;1299;25422;-61
2022/09/17 07:26:15;;;;;;;10.10;2.00;;;22.70;69.70;;;;;;215020;1299;22796;-60
2022/09/17 07:31:19;;;;;;;;;;;22.70;69.50;;;;;;214928;1299;22564;-61
2022/09/17 07:36:22;;;;;;;6.00;2.40;;;22.70;69.50;;;;;;215150;1296;22706;-62
2022/09/17 07:41:26;;;;;;;4.10;2.00;;;22.70;69.30;;;;;;215128;1298;25734;-60
2022/09/17 07:46:30;;;;;;;5.60;2.20;;;22.70;69.30;;;;;;215290;1299;22552;-62
2022/09/17 07:51:34;;;;;;;7.50;2.30;;;22.60;69.20;;;;;;215000;1299;24304;-60
2022/09/17 07:56:38;;;;;;;4.40;1.80;;;22.60;69.30;;;;;;215128;1299;24231;-60
2022/09/17 08:01:41;;;;;;;5.80;2.30;;;22.60;68.90;;;;;;214829;1298;22569;-59
2022/09/17 08:06:47;;;;;;;4.20;1.80;;;22.60;68.70;;;;;;215052;1296;23954;-60
2022/09/17 08:11:51;;;;;;;4.90;1.70;;;22.60;69.10;;;;;;215149;1299;23212;-57
2022/09/17 08:16:59;;;;;;;3.50;1.60;;;22.60;68.70;;;;;;214985;1299;22622;-61
2022/09/17 08:22:03;;;;;;;7.10;2.10;;;22.60;68.60;;;;;;214927;1300;25514;-59
2022/09/17 08:27:08;;;;;;;7.20;2.10;;;22.60;68.60;;;;;;214885;1299;24331;-60
2022/09/17 08:32:12;;;;;;;3.00;1.70;;;22.60;68.40;;;;;;214885;1299;25549;-59
2022/09/17 08:37:19;;;;;;;5.50;1.80;;;22.60;68.30;;;;;;214972;1299;24416;-60
2022/09/17 08:42:53;;;;;;;4.70;1.80;;;22.60;68.30;;;;;;215109;1296;22570;-60
2022/09/17 08:48:07;;;;;;;7.00;1.90;;;22.60;68.20;;;;;;214966;1299;25066;-60
2022/09/17 08:53:37;;;;;;;3.60;1.60;;;22.60;68.20;;;;;;215191;1296;24341;-61
2022/09/17 08:58:58;;;;;;;4.00;1.70;;;22.60;67.90;;;;;;215235;1296;22592;-59
2022/09/17 09:04:06;;;;;;;7.70;2.00;;;22.60;67.90;;;;;;214583;1299;24384;-62
2022/09/17 09:09:14;;;;;;;4.40;1.80;;;22.60;67.90;;;;;;214780;1297;22857;-60
2022/09/17 09:14:32;;;;;;;4.50;1.80;;;22.60;67.70;;;;;;215014;1296;24416;-60
2022/09/17 09:19:45;;;;;;;3.60;1.60;;;22.60;67.70;;;;;;215096;1296;22657;-61
2022/09/17 09:25:19;;;;;;;4.90;2.10;;;22.60;67.50;;;;;;215214;1296;23783;-60
2022/09/17 09:30:51;;;;;;;3.30;1.80;;;22.60;67.60;;;;;;214619;1299;22614;-57
2022/09/17 09:35:55;;;;;;;4.60;2.00;;;22.60;67.40;;;;;;214607;1296;23312;-61
2022/09/17 09:41:10;;;;;;;3.80;1.70;;;22.60;67.60;;;;;;214768;1299;22873;-60
2022/09/17 09:46:47;;;;;;;4.00;1.70;;;22.60;67.30;;;;;;214617;1300;22727;-59
2022/09/17 09:52:02;;;;;;;3.20;1.50;;;22.60;67.40;;;;;;214657;1299;22733;-60
2022/09/17 09:57:12;;;;;;;4.20;1.90;;;22.60;67.30;;;;;;214932;1299;22600;-58
2022/09/17 10:02:16;;;;;;;3.50;1.60;;;22.60;67.20;;;;;;214708;1299;22599;-60
2022/09/17 10:07:23;;;;;;;2.60;1.50;;;22.60;67.20;;;;;;214996;1299;22867;-61
2022/09/17 10:12:26;;;;;;;3.80;2.20;;;22.60;67.20;;;;;;214646;1298;23214;-61
2022/09/17 10:17:31;;;;;;;2.90;1.70;;;22.60;67.10;;;;;;214704;1297;22689;-60
2022/09/17 10:22:45;;;;;;;3.70;1.90;;;22.60;66.90;;;;;;215193;1299;22664;-61
2022/09/17 10:27:49;;;;;;;3.40;1.50;;;22.60;67.00;;;;;;215113;1297;25385;-61
2022/09/17 10:33:18;;;;;;;2.70;1.40;;;22.60;67.20;;;;;;215238;1299;23896;-61
2022/09/17 10:38:39;;;;;;;2.70;1.50;;;22.60;66.90;;;;;;215187;1297;24979;-59
2022/09/17 10:43:44;;;;;;;3.40;1.50;;;22.60;66.80;;;;;;215093;1299;24135;-60
2022/09/17 10:48:58;;;;;;;2.90;1.40;;;22.60;67.10;;;;;;215180;1299;25569;-60
2022/09/17 10:54:18;;;;;;;3.10;1.60;;;22.60;66.20;;;;;;214932;1300;22635;-59
2022/09/17 10:59:38;;;;;;;2.40;1.40;;;22.60;66.80;;;;;;214900;1297;22567;-60
2022/09/17 11:05:01;;;;;;;3.40;1.50;;;22.60;66.80;;;;;;214943;1299;22598;-59
2022/09/17 11:10:39;;;;;;;2.80;1.40;;;22.60;66.80;;;;;;214875;1299;26645;-59
2022/09/17 11:15:59;;;;;;;2.20;1.40;;;22.60;66.10;;;;;;214752;1299;22572;-61
2022/09/17 11:21:24;;;;;;;3.90;1.80;;;22.70;66.40;;;;;;214894;1299;24739;-60
2022/09/17 11:27:07;;;;;;;2.40;1.40;;;22.70;66.70;;;;;;215087;1300;24329;-61
2022/09/17 11:32:18;;;;;;;2.80;1.50;;;22.70;66.40;;;;;;214842;1299;23954;-59
2022/09/17 11:37:37;;;;;;;2.20;1.40;;;22.60;66.70;;;;;;214966;1299;22617;-63
2022/09/17 11:42:49;;;;;;;2.80;1.60;;;22.60;66.40;;;;;;214997;1299;22608;-59
2022/09/17 11:48:19;;;;;;;3.50;1.70;;;22.60;66.70;;;;;;214989;1300;23980;-59
2022/09/17 11:53:26;;;;;;;3.80;1.20;;;22.70;66.50;;;;;;215147;1299;23142;-59
2022/09/17 11:58:54;;;;;;;2.60;1.50;;;22.70;66.20;;;;;;214860;1299;22634;-61
2022/09/17 12:04:23;;;;;;;2.20;1.20;;;22.60;66.10;;;;;;215026;1299;22643;-61
2022/09/17 12:09:32;;;;;;;2.90;1.50;;;22.70;66.00;;;;;;214964;1299;24415;-60
2022/09/17 12:14:49;;;;;;;2.40;1.50;;;22.80;66.00;;;;;;214926;1299;26990;-59
2022/09/17 12:20:00;;;;;;;2.30;1.20;;;22.80;65.50;;;;;;214821;1299;22647;-60
2022/09/17 12:25:12;;;;;;;2.20;1.40;;;22.80;66.00;;;;;;214634;1299;24726;-60
2022/09/17 12:30:20;;;;;;;2.70;1.30;;;22.70;65.90;;;;;;214688;1299;23990;-60
2022/09/17 12:35:51;;;;;;;2.20;1.10;;;22.70;66.20;;;;;;214925;1299;22586;-61
2022/09/17 12:41:19;;;;;;;2.30;1.30;;;22.70;65.90;;;;;;214871;1298;25402;-62
2022/09/17 12:46:50;;;;;;;2.80;1.30;;;22.80;66.00;;;;;;214997;1300;24821;-60
2022/09/17 12:51:58;;;;;;;2.50;1.30;;;22.70;65.80;;;;;;215259;1296;23989;-60
2022/09/17 12:57:31;;;;;;;2.10;1.20;;;22.80;66.10;;;;;;215156;1296;24427;-59
2022/09/17 13:02:57;;;;;;;2.90;1.20;;;22.80;65.70;;;;;;214985;1299;22763;-61
2022/09/17 13:08:31;;;;;;;2.60;1.10;;;22.80;65.50;;;;;;215039;1297;22631;-61
2022/09/17 13:14:00;;;;;;;2.30;1.20;;;22.80;65.50;;;;;;215294;1296;24295;-61
2022/09/17 13:19:39;;;;;;;2.20;1.30;;;22.80;65.80;;;;;;213878;1296;1697133;-58
2022/09/17 13:24:46;;;;;;;3.00;1.60;;;22.80;65.50;;;;;;215169;1296;24205;-60
2022/09/17 13:29:53;;;;;;;2.50;1.70;;;22.80;65.60;;;;;;215186;1299;22645;-61
2022/09/17 13:35:13;;;;;;;3.10;1.30;;;22.80;65.60;;;;;;214899;1297;24408;-60
2022/09/17 13:40:31;;;;;;;2.30;1.30;;;22.80;65.50;;;;;;215085;1297;24022;-63
2022/09/17 13:45:58;;;;;;;2.20;1.30;;;22.80;65.70;;;;;;215144;1299;24301;-59
2022/09/17 13:51:28;;;;;;;2.60;1.40;;;22.80;65.40;;;;;;214968;1297;22589;-57
2022/09/17 13:56:41;;;;;;;1.90;1.10;;;22.80;65.40;;;;;;215304;1296;24233;-60
2022/09/17 14:02:21;;;;;;;3.30;1.40;;;22.80;65.40;;;;;;215089;1297;25292;-59
2022/09/17 14:07:49;;;;;;;2.40;1.30;;;22.80;65.50;;;;;;215027;1299;22873;-61
2022/09/17 14:13:02;;;;;;;2.40;1.30;;;22.80;65.70;;;;;;215100;1300;24549;-60
2022/09/17 14:18:34;;;;;;;2.60;1.50;;;22.80;65.30;;;;;;214995;1299;22608;-60
2022/09/17 14:24:21;;;;;;;2.10;1.20;;;22.80;65.30;;;;;;215099;1299;24506;-61
2022/09/17 14:29:52;;;;;;;2.50;1.40;;;22.80;65.20;;;;;;214963;1299;22632;-59
2022/09/17 14:35:13;;;;;;;2.40;1.20;;;22.80;65.50;;;;;;214930;1296;24312;-60
2022/09/17 14:40:26;;;;;;;1.90;1.20;;;22.80;65.20;;;;;;214935;1299;25451;-60
2022/09/17 14:45:41;;;;;;;2.10;1.50;;;22.80;65.50;;;;;;215167;1300;22634;-61
2022/09/17 14:50:45;;;;;;;1.80;1.20;;;22.80;65.80;;;;;;215191;1297;22738;-63
2022/09/17 14:56:00;;;;;;;2.00;1.00;;;22.80;65.30;;;;;;214892;1302;22688;-60
2022/09/17 15:01:30;;;;;;;3.00;1.30;;;22.80;65.10;;;;;;215040;1297;24244;-64
2022/09/17 15:06:35;;;;;;;2.50;1.30;;;22.80;65.00;;;;;;215022;1297;22574;-61
2022/09/17 15:11:44;;;;;;;2.30;1.20;;;22.80;65.00;;;;;;214938;1302;22578;-61
2022/09/17 15:16:58;;;;;;;1.40;1.00;;;22.80;65.00;;;;;;215097;1297;22592;-60
2022/09/17 15:22:23;;;;;;;2.50;1.20;;;22.80;65.10;;;;;;215090;1299;22635;-60
2022/09/17 15:27:38;;;;;;;3.50;1.40;;;22.80;65.10;;;;;;215318;1297;24231;-61
2022/09/17 15:32:59;;;;;;;2.40;1.20;;;22.70;65.00;;;;;;215184;1300;22692;-62
2022/09/17 15:38:27;;;;;;;2.30;1.40;;;22.70;65.30;;;;;;215256;1296;25414;-59
2022/09/17 15:43:33;;;;;;;1.80;1.10;;;22.80;65.00;;;;;;215045;1297;22595;-62
2022/09/17 15:48:38;;;;;;;2.20;1.20;;;22.70;65.00;;;;;;215178;1297;24304;-60
2022/09/17 15:53:51;;;;;;;1.90;1.10;;;22.70;65.30;;;;;;215004;1299;22631;-61
2022/09/17 15:59:03;;;;;;;2.00;1.20;;;22.70;65.00;;;;;;214771;1297;24328;-60
2022/09/17 16:04:17;;;;;;;2.40;1.40;;;22.70;65.30;;;;;;215161;1297;22786;-58
2022/09/17 16:09:40;;;;;;;1.80;1.20;;;22.70;64.90;;;;;;214736;1299;23050;-64
2022/09/17 16:14:47;;;;;;;2.50;1.40;;;22.70;65.00;;;;;;215041;1300;25293;-60
2022/09/17 16:19:51;;;;;;;2.60;1.30;;;22.70;65.00;;;;;;215276;1297;22978;-59
2022/09/17 16:24:55;;;;;;;1.70;1.10;;;22.70;65.30;;;;;;214764;1296;22643;-59
2022/09/17 16:30:08;;;;;;;3.00;1.30;;;22.60;65.00;;;;;;214788;1300;25391;-61
2022/09/17 16:35:13;;;;;;;2.70;1.20;;;22.60;65.40;;;;;;215017;1297;22802;-62
2022/09/17 16:40:21;;;;;;;3.30;1.20;;;22.60;65.00;;;;;;215166;1297;22787;-60
2022/09/17 16:45:24;;;;;;;2.40;1.20;;;22.60;65.00;;;;;;214967;1299;22583;-60
2022/09/17 16:50:33;;;;;;;2.40;1.10;;;22.50;64.90;;;;;;214987;1300;22580;-61
2022/09/17 16:55:37;;;;;;;2.90;1.20;;;22.60;65.00;;;;;;215061;1297;24319;-59
2022/09/17 17:00:42;;;;;;;2.00;1.40;;;22.50;65.00;;;;;;215052;1299;26664;-60
2022/09/17 17:05:45;;;;;;;2.50;1.10;;;22.50;65.30;;;;;;214981;1299;22676;-58
2022/09/17 17:10:49;;;;;;;1.90;1.20;;;22.50;64.90;;;;;;215153;1297;26659;-60
2022/09/17 17:15:54;;;;;;;2.80;1.10;;;22.50;65.30;;;;;;215075;1299;24354;-59
2022/09/17 17:21:05;;;;;;;1.80;1.20;;;22.50;64.90;;;;;;215012;1299;24298;-58
2022/09/17 17:26:08;;;;;;;1.90;1.20;;;22.50;65.00;;;;;;215200;1299;24401;-59
2022/09/17 17:31:13;;;;;;;2.20;1.20;;;22.50;65.00;;;;;;215084;1296;22673;-62
2022/09/17 17:36:17;;;;;;;2.40;1.20;;;22.40;64.90;;;;;;215079;1296;26173;-58
2022/09/17 17:41:24;;;;;;;1.70;1.10;;;22.40;64.90;;;;;;214936;1297;22606;-61
2022/09/17 17:46:28;;;;;;;1.70;1.10;;;22.40;65.00;;;;;;215201;1296;22785;-59
2022/09/17 17:51:33;;;;;;;2.40;1.20;;;22.40;65.00;;;;;;214921;1299;26535;-60
2022/09/17 17:56:37;;;;;;;2.10;1.40;;;22.40;65.60;;;;;;215349;1296;22767;-60
2022/09/17 18:01:41;;;;;;;2.30;1.30;;;22.40;64.90;;;;;;215169;1296;22745;-61
2022/09/17 18:06:46;;;;;;;2.30;1.30;;;22.40;65.00;;;;;;215287;1299;22566;-59
2022/09/17 18:11:51;;;;;;;1.90;1.10;;;22.40;65.00;;;;;;214906;1299;24428;-60
2022/09/17 18:16:56;;;;;;;1.70;1.10;;;22.30;65.00;;;;;;215335;1298;24350;-59
2022/09/17 18:22:00;;;;;;;2.10;1.30;;;22.30;65.30;;;;;;215312;1299;24357;-63
2022/09/17 18:27:04;;;;;;;2.10;1.20;;;22.30;65.00;;;;;;215195;1297;24285;-61
2022/09/17 18:32:09;;;;;;;2.80;1.10;;;22.30;65.10;;;;;;214881;1296;25557;-59
2022/09/17 18:37:12;;;;;;;2.20;1.20;;;22.30;65.10;;;;;;215121;1297;22714;-60
2022/09/17 18:42:22;;;;;;;2.10;1.10;;;22.30;65.00;;;;;;215142;1296;22576;-60
2022/09/17 18:47:31;;;;;;;2.30;1.20;;;22.30;65.00;;;;;;214933;1296;22589;-59
2022/09/17 18:52:35;;;;;;;2.00;1.30;;;22.20;65.00;;;;;;214825;1298;23983;-62
2022/09/17 18:57:52;;;;;;;1.50;0.90;;;22.20;65.30;;;;;;215229;1299;22729;-59
2022/09/17 19:02:56;;;;;;;3.00;1.00;;;22.30;65.00;;;;;;214928;1297;25287;-60
2022/09/17 19:07:59;;;;;;;1.70;1.00;;;22.20;65.00;;;;;;215032;1297;24348;-60
2022/09/17 19:13:03;;;;;;;1.80;1.20;;;22.20;65.00;;;;;;215014;1298;22745;-60
2022/09/17 19:18:07;;;;;;;1.80;1.00;;;22.20;65.00;;;;;;215147;1297;24439;-60
2022/09/17 19:23:15;;;;;;;2.30;1.10;;;22.20;65.40;;;;;;215383;1299;23070;-63
2022/09/17 19:28:21;;;;;;;1.80;1.10;;;22.20;65.00;;;;;;214984;1297;25814;-61
2022/09/17 19:33:32;;;;;;;1.90;1.20;;;22.20;65.00;;;;;;214774;1299;22572;-62
2022/09/17 19:38:37;;;;;;;1.70;1.10;;;22.10;64.90;;;;;;214919;1297;22569;-58
2022/09/17 19:43:49;;;;;;;2.20;1.20;;;22.20;65.00;;;;;;215009;1300;25293;-61
2022/09/17 19:48:59;;;;;;;1.80;1.00;;;22.10;64.90;;;;;;215303;1297;24494;-60
2022/09/17 19:54:05;;;;;;;2.10;1.10;;;22.10;65.30;;;;;;215010;1297;22595;-63
2022/09/17 19:59:09;;;;;;;2.60;1.20;;;22.10;65.00;;;;;;215050;1297;25384;-60
2022/09/17 20:04:17;;;;;;;2.30;1.30;;;22.10;64.90;;;;;;214908;1299;22748;-60
2022/09/17 20:09:25;;;;;;;1.50;1.00;;;22.10;64.90;;;;;;215295;1299;24334;-65
2022/09/17 20:14:28;;;;;;;1.80;1.10;;;22.10;65.00;;;;;;215344;1296;25445;-59
2022/09/17 20:19:32;;;;;;;2.10;1.10;;;22.00;65.30;;;;;;215014;1297;25250;-60
2022/09/17 20:24:38;;;;;;;2.50;1.30;;;22.10;65.00;;;;;;214895;1297;24315;-60
2022/09/17 20:29:42;;;;;;;1.70;1.00;;;22.00;64.90;;;;;;215291;1299;25397;-61
2022/09/17 20:34:50;;;;;;;1.90;1.00;;;22.00;65.30;;;;;;215120;1300;24419;-60
2022/09/17 20:39:54;;;;;;;2.00;1.10;;;22.00;64.90;;;;;;214941;1296;22667;-60
2022/09/17 20:45:01;;;;;;;1.30;0.90;;;22.00;65.00;;;;;;215077;1296;22655;-61
2022/09/17 20:50:06;;;;;;;1.80;1.10;;;22.00;64.90;;;;;;215410;1296;24363;-60
2022/09/17 20:55:22;;;;;;;2.00;1.00;;;22.00;65.00;;;;;;215010;1296;22888;-59
2022/09/17 21:00:28;;;;;;;2.10;1.20;;;21.90;64.90;;;;;;214969;1297;22621;-61
2022/09/17 21:05:37;;;;;;;1.70;1.00;;;21.90;64.90;;;;;;215082;1297;22866;-60
2022/09/17 21:10:43;;;;;;;2.40;1.10;;;21.90;64.90;;;;;;214795;1298;22564;-61
2022/09/17 21:15:57;;;;;;;2.50;1.30;;;21.90;64.80;;;;;;215309;1297;24412;-59
2022/09/17 21:21:06;;;;;;;2.10;1.10;;;21.90;65.50;;;;;;214966;1297;22576;-62
2022/09/17 21:26:18;;;;;;;1.80;1.10;;;21.90;64.90;;;;;;214924;1299;22567;-61
2022/09/17 21:31:38;;;;;;;1.90;1.20;;;21.90;64.90;;;;;;214930;1297;22574;-60
2022/09/17 21:36:46;;;;;;;1.50;0.90;;;21.90;65.40;;;;;;215034;1296;22580;-60
2022/09/17 21:41:50;;;;;;;1.30;0.90;;;21.90;64.90;;;;;;215201;1297;24409;-59
2022/09/17 21:46:56;;;;;;;1.50;0.90;;;21.80;64.80;;;;;;214863;1297;22659;-60
2022/09/17 21:52:00;;;;;;;2.10;1.30;;;21.80;64.80;;;;;;214912;1297;22574;-61
2022/09/17 21:57:03;;;;;;;2.60;1.30;;;21.80;64.80;;;;;;214905;1299;22578;-65
2022/09/17 22:02:09;;;;;;;1.40;1.00;;;21.80;64.80;;;;;;215291;1297;22685;-57
2022/09/17 22:07:12;;;;;;;2.30;1.20;;;21.80;65.10;;;;;;214979;1297;25337;-61
2022/09/17 22:12:16;;;;;;;2.00;1.10;;;21.80;65.20;;;;;;214711;1299;22721;-61
2022/09/17 22:17:21;;;;;;;2.10;1.10;;;21.80;64.80;;;;;;214744;1299;22572;-63
2022/09/17 22:22:25;;;;;;;1.90;1.10;;;21.70;64.70;;;;;;215018;1299;24286;-59
2022/09/17 22:27:29;;;;;;;1.30;0.90;;;21.80;65.10;;;;;;215177;1296;25716;-59
2022/09/17 22:32:33;;;;;;;1.60;0.90;;;21.70;64.70;;;;;;215066;1296;22612;-61
2022/09/17 22:37:40;;;;;;;2.10;1.00;;;21.80;64.80;;;;;;215071;1296;22745;-59
2022/09/17 22:42:51;;;;;;;1.90;1.20;;;21.70;64.70;;;;;;215078;1296;24328;-61
2022/09/17 22:47:55;;;;;;;1.70;1.00;;;21.70;64.70;;;;;;215048;1299;25417;-60
2022/09/17 22:52:59;;;;;;;1.80;1.00;;;21.60;65.00;;;;;;215260;1296;22576;-60
2022/09/17 22:58:02;;;;;;;2.60;1.10;;;21.70;64.70;;;;;;215141;1299;22586;-63
2022/09/17 23:03:06;;;;;;;1.60;1.00;;;21.70;64.80;;;;;;214860;1299;25525;-60
2022/09/17 23:08:10;;;;;;;1.90;1.00;;;21.60;64.30;;;;;;215038;1299;22697;-60
2022/09/17 23:13:13;;;;;;;2.20;1.00;;;21.60;64.60;;;;;;214709;1297;22569;-61
2022/09/17 23:18:17;;;;;;;1.50;1.00;;;21.60;64.70;;;;;;214831;1299;25280;-61
2022/09/17 23:23:21;;;;;;;2.00;1.00;;;21.60;64.70;;;;;;214929;1298;22591;-64
2022/09/17 23:28:27;;;;;;;1.80;1.10;;;21.60;64.70;;;;;;215277;1299;22598;-60
2022/09/17 23:33:30;;;;;;;2.60;1.20;;;21.60;64.70;;;;;;215074;1299;24300;-62
2022/09/17 23:38:34;;;;;;;2.20;1.00;;;21.60;64.70;;;;;;214718;1297;22615;-62
2022/09/17 23:43:38;;;;;;;1.50;0.80;;;21.60;64.70;;;;;;215162;1299;22642;-61
2022/09/17 23:48:42;;;;;;;1.40;0.90;;;21.50;64.60;;;;;;215021;1299;25273;-61
2022/09/17 23:53:47;;;;;;;2.10;1.20;;;21.50;64.60;;;;;;215187;1299;25479;-60
2022/09/17 23:58:51;;;;;;;1.70;1.20;;;21.50;64.60;;;;;;215277;1299;22637;-61
